createdAt,value
2017-08-06T00:02:14.147Z,6.47
2017-08-06T00:04:41.755Z,6.83
2017-08-06T00:07:09.334Z,5.97
2017-08-06T00:09:37.233Z,6.73
2017-08-06T00:12:04.812Z,6.77
2017-08-06T00:14:33.138Z,6.10
2017-08-06T00:17:00.785Z,6.40
2017-08-06T00:19:28.349Z,6.43
2017-08-06T00:21:55.954Z,6.90
2017-08-06T00:24:23.555Z,7.07
2017-08-06T00:26:51.458Z,6.40
2017-08-06T00:29:19.061Z,6.30
2017-08-06T00:31:46.653Z,6.60
2017-08-06T00:34:14.260Z,6.50
2017-08-06T00:36:41.840Z,6.00
2017-08-06T00:39:09.534Z,6.60
2017-08-06T00:41:37.136Z,6.27
2017-08-06T00:44:05.094Z,5.67
2017-08-06T00:46:32.688Z,5.37
2017-08-06T00:49:01.015Z,6.20
2017-08-06T00:51:28.600Z,6.23
2017-08-06T00:53:56.187Z,6.50
2017-08-06T00:56:24.831Z,6.77
2017-08-06T00:58:52.387Z,6.50
2017-08-06T01:01:20.023Z,6.20
2017-08-06T01:03:47.607Z,6.30
2017-08-06T01:06:15.183Z,6.53
2017-08-06T01:08:42.798Z,6.27
2017-08-06T01:11:10.464Z,6.10
2017-08-06T01:13:38.471Z,6.47
2017-08-06T01:16:06.059Z,6.33
2017-08-06T01:18:34.406Z,6.80
2017-08-06T01:21:02.010Z,6.23
2017-08-06T01:23:29.599Z,5.93
2017-08-06T01:25:57.194Z,6.00
2017-08-06T01:28:24.788Z,5.70
2017-08-06T01:30:52.649Z,5.50
2017-08-06T01:33:21.057Z,4.50
2017-08-06T01:35:48.669Z,6.17
2017-08-06T01:38:16.263Z,5.50
2017-08-06T01:40:43.821Z,5.37
2017-08-06T01:43:11.408Z,5.30
2017-08-06T01:45:39.035Z,6.60
2017-08-06T01:48:06.951Z,6.10
2017-08-06T01:50:34.567Z,5.80
2017-08-06T01:53:02.245Z,5.40
2017-08-06T01:55:29.847Z,6.30
2017-08-06T01:57:57.429Z,6.03
2017-08-06T02:00:25.783Z,6.10
2017-08-06T02:02:53.380Z,5.97
2017-08-06T02:05:20.969Z,6.33
2017-08-06T02:07:48.566Z,6.63
2017-08-06T02:10:16.177Z,6.57
2017-08-06T02:12:44.100Z,6.90
2017-08-06T02:15:11.680Z,7.80
2017-08-06T02:17:40.010Z,6.30
2017-08-06T02:20:07.590Z,7.60
2017-08-06T02:22:35.170Z,6.97
2017-08-06T02:25:03.909Z,6.83
2017-08-06T02:27:31.472Z,6.47
2017-08-06T02:29:59.043Z,7.50
2017-08-06T02:32:26.683Z,7.20
2017-08-06T02:34:54.246Z,7.10
2017-08-06T02:37:22.121Z,6.93
2017-08-06T02:39:49.691Z,7.40
2017-08-06T02:42:17.266Z,7.30
2017-08-06T02:44:44.863Z,8.27
2017-08-06T02:47:12.489Z,8.10
2017-08-06T02:49:40.347Z,8.17
2017-08-06T02:52:07.958Z,7.37
2017-08-06T02:54:35.519Z,6.83
2017-08-06T02:57:03.103Z,7.00
2017-08-06T02:59:30.684Z,7.10
2017-08-06T03:01:58.533Z,6.17
2017-08-06T03:04:26.168Z,6.40
2017-08-06T03:06:53.746Z,6.23
2017-08-06T03:09:21.355Z,6.47
2017-08-06T03:11:49.687Z,6.20
2017-08-06T03:14:17.551Z,6.37
2017-08-06T03:16:45.127Z,8.37
2017-08-06T03:19:12.707Z,8.37
2017-08-06T03:21:41.097Z,8.43
2017-08-06T03:24:09.432Z,7.77
2017-08-06T03:26:37.336Z,7.33
2017-08-06T03:29:05.852Z,7.47
2017-08-06T03:31:33.443Z,6.87
2017-08-06T03:34:01.060Z,7.60
2017-08-06T03:36:28.640Z,6.83
2017-08-06T03:38:56.226Z,8.00
2017-08-06T03:41:23.819Z,7.47
2017-08-06T03:43:51.446Z,7.93
2017-08-06T03:46:19.070Z,7.73
2017-08-06T03:48:46.659Z,7.77
2017-08-06T03:51:14.291Z,7.43
2017-08-06T03:53:41.865Z,8.40
2017-08-06T03:56:09.453Z,7.40
2017-08-06T03:58:37.060Z,6.43
2017-08-06T04:01:04.647Z,7.00
2017-08-06T04:03:32.263Z,6.07
2017-08-06T04:06:00.606Z,6.60
2017-08-06T04:08:28.231Z,7.37
2017-08-06T04:10:55.832Z,7.27
2017-08-06T04:13:23.403Z,5.90
2017-08-06T04:15:50.998Z,6.80
2017-08-06T04:18:18.577Z,6.33
2017-08-06T04:20:46.151Z,6.47
2017-08-06T04:23:13.742Z,6.80
2017-08-06T04:25:42.129Z,6.80
2017-08-06T04:28:10.545Z,7.70
2017-08-06T04:30:38.130Z,7.13
2017-08-06T04:33:05.715Z,5.90
2017-08-06T04:35:33.327Z,7.10
2017-08-06T04:38:00.923Z,5.10
2017-08-06T04:40:28.516Z,6.53
2017-08-06T04:42:56.867Z,7.47
2017-08-06T04:45:24.412Z,8.10
2017-08-06T04:47:52.020Z,7.80
2017-08-06T04:50:19.628Z,6.40
2017-08-06T04:52:47.223Z,7.47
2017-08-06T04:55:15.579Z,6.70
2017-08-06T04:57:43.452Z,7.00
2017-08-06T05:00:11.046Z,6.23
2017-08-06T05:02:38.644Z,7.83
2017-08-06T05:05:06.240Z,6.47
2017-08-06T05:07:34.578Z,5.97
2017-08-06T05:10:02.315Z,6.30
2017-08-06T05:12:29.887Z,8.03
2017-08-06T05:14:57.755Z,5.63
2017-08-06T05:17:25.319Z,5.53
2017-08-06T05:19:52.898Z,5.20
2017-08-06T05:22:20.496Z,5.27
2017-08-06T05:24:48.811Z,4.93
2017-08-06T05:27:16.428Z,5.03
2017-08-06T05:29:44.776Z,5.20
2017-08-06T05:32:12.624Z,4.50
2017-08-06T05:34:40.199Z,4.10
2017-08-06T05:37:07.762Z,3.70
2017-08-06T05:39:35.354Z,3.80
2017-08-06T05:42:02.938Z,3.30
2017-08-06T05:44:30.525Z,3.33
2017-08-06T05:46:58.100Z,3.67
2017-08-06T05:49:26.059Z,3.07
2017-08-06T05:51:53.681Z,3.03
2017-08-06T05:54:21.254Z,3.70
2017-08-06T05:56:48.844Z,3.30
2017-08-06T05:59:16.430Z,3.13
2017-08-06T06:01:44.853Z,3.10
2017-08-06T06:04:12.454Z,3.70
2017-08-06T06:06:40.304Z,3.50
2017-08-06T06:09:07.863Z,2.93
2017-08-06T06:11:35.455Z,3.47
2017-08-06T06:14:03.051Z,3.10
2017-08-06T06:16:30.631Z,3.03
2017-08-06T06:18:58.227Z,3.07
2017-08-06T06:21:25.907Z,2.83
2017-08-06T06:23:54.568Z,3.00
2017-08-06T06:26:22.139Z,2.50
2017-08-06T06:28:50.474Z,2.73
2017-08-06T06:31:18.067Z,2.60
2017-08-06T06:33:45.954Z,2.40
2017-08-06T06:36:14.322Z,2.63
2017-08-06T06:38:41.949Z,2.43
2017-08-06T06:41:09.824Z,2.60
2017-08-06T06:43:37.416Z,3.80
2017-08-06T06:46:05.024Z,2.80
2017-08-06T06:48:32.639Z,2.67
2017-08-06T06:51:00.208Z,2.60
2017-08-06T06:53:27.818Z,2.33
2017-08-06T06:55:55.416Z,2.00
2017-08-06T06:58:24.058Z,2.43
2017-08-06T07:00:51.640Z,2.60
2017-08-06T07:03:19.194Z,1.90
2017-08-06T07:05:46.808Z,2.77
2017-08-06T07:08:14.402Z,2.10
2017-08-06T07:10:42.038Z,2.40
2017-08-06T07:13:09.606Z,2.30
2017-08-06T07:15:37.334Z,2.37
2017-08-06T07:18:05.018Z,2.27
2017-08-06T07:20:32.923Z,2.10
2017-08-06T07:23:00.463Z,2.10
2017-08-06T07:25:28.062Z,1.97
2017-08-06T07:27:56.441Z,2.07
2017-08-06T07:30:24.017Z,2.03
2017-08-06T07:32:51.644Z,2.30
2017-08-06T07:35:19.226Z,2.47
2017-08-06T07:37:46.888Z,1.90
2017-08-06T07:40:15.281Z,2.03
2017-08-06T07:42:42.885Z,1.90
2017-08-06T07:45:10.470Z,1.73
2017-08-06T07:47:38.418Z,1.90
2017-08-06T07:50:05.985Z,2.00
2017-08-06T07:52:33.553Z,2.05
2017-08-06T07:55:01.169Z,1.58
2017-08-06T07:57:28.774Z,1.77
2017-08-06T07:59:56.376Z,1.60
2017-08-06T08:02:23.964Z,1.83
2017-08-06T08:04:51.574Z,1.60
2017-08-06T08:07:19.947Z,1.45
2017-08-06T08:09:48.652Z,1.27
2017-08-06T08:12:16.224Z,1.55
2017-08-06T08:14:43.806Z,1.77
2017-08-06T08:17:11.409Z,1.50
2017-08-06T08:19:39.799Z,1.40
2017-08-06T08:22:08.155Z,1.48
2017-08-06T08:24:35.734Z,1.33
2017-08-06T08:27:03.352Z,1.23
2017-08-06T08:29:30.947Z,1.40
2017-08-06T08:31:59.341Z,1.40
2017-08-06T08:34:27.028Z,1.77
2017-08-06T08:36:54.594Z,1.02
2017-08-06T08:39:22.220Z,1.20
2017-08-06T08:41:50.188Z,1.10
2017-08-06T08:44:17.911Z,1.70
2017-08-06T08:46:45.509Z,0.93
2017-08-06T08:49:13.897Z,1.20
2017-08-06T08:51:41.522Z,1.67
2017-08-06T08:54:09.132Z,1.37
2017-08-06T08:56:36.723Z,1.20
2017-08-06T08:59:04.585Z,1.33
2017-08-06T09:01:32.173Z,1.02
2017-08-06T09:03:59.746Z,1.30
2017-08-06T09:06:28.124Z,0.85
2017-08-06T09:08:55.696Z,1.00
2017-08-06T09:11:23.617Z,0.93
2017-08-06T09:13:51.198Z,0.82
2017-08-06T09:16:18.782Z,1.30
2017-08-06T09:18:46.385Z,1.00
2017-08-06T09:21:14.030Z,1.20
2017-08-06T09:23:41.922Z,1.33
2017-08-06T09:26:09.489Z,1.50
2017-08-06T09:28:37.076Z,1.02
2017-08-06T09:31:05.704Z,1.10
2017-08-06T09:33:33.259Z,1.37
2017-08-06T09:36:01.155Z,1.00
2017-08-06T09:38:28.760Z,1.50
2017-08-06T09:40:56.332Z,1.08
2017-08-06T09:43:23.944Z,1.60
2017-08-06T09:45:51.510Z,1.95
2017-08-06T09:48:19.108Z,1.45
2017-08-06T09:50:46.680Z,1.70
2017-08-06T09:53:14.588Z,1.52
2017-08-06T09:55:42.199Z,1.73
2017-08-06T09:58:09.777Z,2.20
2017-08-06T10:00:37.385Z,2.00
2017-08-06T10:03:05.732Z,1.58
2017-08-06T10:05:33.318Z,1.77
2017-08-06T10:08:00.859Z,1.92
2017-08-06T10:10:28.718Z,1.70
2017-08-06T10:12:56.250Z,1.77
2017-08-06T10:15:23.835Z,1.70
